Dunkins Mill, South Carolina
Current Conditions -  °F | °C
As of 10:58 PM on Sunday 23 Nov 2014 (Local Time) from KSSC Reporting Station
Clear Clear  
Wind Chill: 18°   Ceiling: Unl
Heat Index: 18°   Visibility: 10mi
Dew Point: 17°   Wind: 10mph
Humidity: 94%   Direction: 200°SSW
Pressure: 29.76"   Gusts: NA
Location:  34.1106°N, 80.4967°W
Report Text: KSSC 240358Z AUTO 20009KT 10SM CLR 18/17 A2976 RMK AO2 RAE0312 SLP078 P0001 T01810171 $
Loading
Personal Weather Stations






























Interactive Weather Map New forecast layout! Learn more

10-Day Weather Forecast

Advertisements
Track Severe Weather on mobile